createdAt,value
2023-01-04T00:00:08.868Z,4.28
2023-01-04T00:03:00.735Z,4.27
2023-01-04T00:05:32.934Z,4.32
2023-01-04T00:08:04.911Z,4.32
2023-01-04T00:10:36.704Z,4.24
2023-01-04T00:13:08.416Z,4.23
2023-01-04T00:15:40.103Z,4.28
2023-01-04T00:18:11.885Z,4.25
2023-01-04T00:20:43.965Z,4.03
2023-01-04T00:23:16.062Z,3.92
2023-01-04T00:25:48.050Z,4.00
2023-01-04T00:28:20.151Z,3.97
2023-01-04T00:30:51.949Z,3.98
2023-01-04T00:33:23.918Z,3.91
2023-01-04T00:35:55.608Z,3.81
2023-01-04T00:38:27.356Z,3.84
2023-01-04T00:40:59.639Z,3.84
2023-01-04T00:43:31.529Z,3.94
2023-01-04T00:46:03.477Z,3.96
2023-01-04T00:48:40.111Z,3.94
2023-01-04T00:51:12.477Z,3.62
2023-01-04T00:53:44.411Z,3.39
2023-01-04T00:56:16.235Z,3.44
2023-01-04T00:58:48.126Z,3.66
2023-01-04T01:01:19.935Z,3.68
2023-01-04T01:03:55.682Z,3.70
2023-01-04T01:06:28.383Z,3.63
2023-01-04T01:08:58.643Z,3.72
2023-01-04T01:11:31.350Z,3.69
2023-01-04T01:14:01.567Z,3.68
2023-01-04T01:19:25.782Z,3.83
2023-01-04T01:21:58.514Z,3.82
2023-01-04T01:24:30.975Z,3.75
2023-01-04T01:27:02.808Z,3.75
2023-01-04T01:29:35.037Z,3.65
2023-01-04T01:32:07.194Z,3.67
2023-01-04T01:34:39.155Z,3.63
2023-01-04T01:37:10.858Z,3.75
2023-01-04T01:39:42.704Z,3.73
2023-01-04T01:42:23.336Z,3.76
2023-01-04T01:45:11.216Z,3.75
2023-01-04T01:47:47.120Z,3.78
2023-01-04T01:50:27.373Z,3.81
2023-01-04T01:53:01.620Z,3.79
2023-01-04T01:55:36.508Z,3.67
2023-01-04T01:58:12.273Z,3.45
2023-01-04T02:00:44.015Z,3.59
2023-01-04T02:03:20.519Z,3.58
2023-01-04T02:05:55.809Z,3.66
2023-01-04T02:08:28.432Z,3.73
2023-01-04T02:10:58.859Z,3.54
2023-01-04T02:13:47.872Z,3.50
2023-01-04T02:16:28.412Z,3.70
2023-01-04T02:19:07.910Z,3.73
2023-01-04T02:21:59.258Z,3.79
2023-01-04T02:24:48.759Z,3.84
2023-01-04T02:27:42.553Z,3.92
2023-01-04T02:30:40.756Z,4.00
2023-01-04T02:33:31.373Z,4.04
2023-01-04T02:36:12.147Z,4.02
2023-01-04T02:38:53.146Z,4.04
2023-01-04T02:41:32.971Z,4.04
2023-01-04T02:44:31.009Z,4.13
2023-01-04T02:47:07.569Z,4.18
2023-01-04T02:50:02.444Z,4.19
2023-01-04T02:52:36.697Z,4.22
2023-01-04T02:55:09.916Z,4.27
2023-01-04T02:57:53.516Z,4.26
2023-01-04T03:01:02.881Z,4.17
2023-01-04T03:04:05.614Z,4.17
2023-01-04T03:06:47.387Z,4.26
2023-01-04T03:09:25.020Z,4.29
2023-01-04T03:12:19.076Z,4.25
2023-01-04T03:15:00.279Z,4.36
2023-01-04T03:17:37.426Z,4.28
2023-01-04T03:20:12.381Z,4.34
2023-01-04T03:23:05.983Z,4.38
2023-01-04T03:26:00.351Z,4.43
2023-01-04T03:28:54.387Z,4.42
2023-01-04T03:31:49.446Z,4.45
2023-01-04T03:34:40.152Z,4.45
2023-01-04T03:37:19.509Z,4.50
2023-01-04T03:40:31.632Z,4.56
2023-01-04T03:43:27.695Z,4.54
2023-01-04T03:46:22.487Z,4.57
2023-01-04T03:48:59.161Z,4.59
2023-01-04T03:51:36.365Z,4.60
2023-01-04T03:54:12.831Z,4.64
2023-01-04T03:56:46.717Z,4.62
2023-01-04T03:59:18.935Z,4.62
2023-01-04T04:01:51.303Z,4.59
2023-01-04T04:04:41.239Z,4.62
2023-01-04T04:07:31.144Z,4.67
2023-01-04T04:10:02.896Z,4.62
2023-01-04T04:12:34.626Z,4.66
2023-01-04T04:15:07.684Z,4.70
2023-01-04T04:17:39.710Z,4.72
2023-01-04T04:20:13.630Z,4.72
2023-01-04T04:22:45.880Z,4.68
2023-01-04T04:25:17.880Z,4.66
2023-01-04T04:27:50.614Z,4.58
2023-01-04T04:30:22.578Z,4.56
2023-01-04T04:32:54.422Z,4.48
2023-01-04T04:35:26.129Z,4.47
2023-01-04T04:37:57.853Z,4.51
2023-01-04T04:40:47.259Z,4.50
2023-01-04T04:43:19.048Z,4.48
2023-01-04T04:45:51.381Z,4.47
2023-01-04T04:48:21.892Z,4.47
2023-01-04T04:50:53.937Z,4.46
2023-01-04T04:53:25.697Z,4.41
2023-01-04T04:55:57.478Z,4.32
2023-01-04T04:58:29.936Z,4.32
2023-01-04T05:01:01.931Z,4.32
2023-01-04T05:03:34.567Z,4.38
2023-01-04T05:06:05.398Z,4.35
2023-01-04T05:08:37.244Z,4.37
2023-01-04T05:11:11.187Z,4.33
2023-01-04T05:13:43.721Z,4.35
2023-01-04T05:16:15.508Z,4.41
2023-01-04T05:18:47.264Z,4.41
2023-01-04T05:21:20.442Z,4.39
2023-01-04T05:23:52.600Z,4.36
2023-01-04T05:26:24.649Z,4.37
2023-01-04T05:28:57.238Z,4.37
2023-01-04T05:31:29.326Z,4.38
2023-01-04T05:34:01.434Z,4.38
2023-01-04T05:36:33.560Z,4.38
2023-01-04T05:39:05.315Z,4.40
2023-01-04T05:41:54.738Z,4.41
2023-01-04T05:44:26.407Z,4.38
2023-01-04T05:46:58.345Z,4.37
2023-01-04T05:49:30.138Z,4.37
2023-01-04T05:52:01.838Z,4.35
2023-01-04T05:54:33.613Z,4.34
2023-01-04T05:57:05.403Z,4.33
2023-01-04T05:59:41.959Z,4.32
2023-01-04T06:02:19.800Z,4.29
2023-01-04T06:04:58.440Z,4.27
2023-01-04T06:07:31.224Z,4.26
2023-01-04T06:10:03.012Z,4.20
2023-01-04T06:12:35.144Z,4.20
2023-01-04T06:15:08.948Z,4.21
2023-01-04T06:17:41.437Z,4.20
2023-01-04T06:20:14.123Z,4.16
2023-01-04T06:22:44.637Z,4.14
2023-01-04T06:25:17.304Z,4.15
2023-01-04T06:27:47.545Z,4.14
2023-01-04T06:30:19.690Z,4.10
2023-01-04T06:32:51.567Z,4.11
2023-01-04T06:35:23.405Z,4.14
2023-01-04T06:37:55.179Z,4.12
2023-01-04T06:40:27.006Z,4.12
2023-01-04T06:42:58.817Z,4.09
2023-01-04T06:45:30.762Z,4.07
2023-01-04T06:48:08.725Z,4.07
2023-01-04T06:50:40.943Z,4.09
2023-01-04T06:53:12.772Z,4.11
2023-01-04T06:55:46.144Z,4.10
2023-01-04T06:58:18.221Z,4.09
2023-01-04T07:00:51.957Z,4.08
2023-01-04T07:03:24.409Z,4.07
2023-01-04T07:05:56.491Z,4.10
2023-01-04T07:08:28.347Z,4.09
2023-01-04T07:11:00.851Z,4.06
2023-01-04T07:13:32.789Z,4.09
2023-01-04T07:16:04.813Z,4.08
2023-01-04T07:18:37.587Z,4.11
2023-01-04T07:21:09.593Z,4.11
2023-01-04T07:23:41.552Z,4.11
2023-01-04T07:26:13.255Z,4.12
2023-01-04T07:29:03.002Z,4.14
2023-01-04T07:31:35.042Z,4.18
2023-01-04T07:34:07.400Z,4.19
2023-01-04T07:36:40.283Z,4.23
2023-01-04T07:39:12.857Z,4.22
2023-01-04T07:41:45.295Z,4.28
2023-01-04T07:44:19.533Z,4.34
2023-01-04T07:46:51.370Z,4.34
2023-01-04T07:49:23.348Z,4.36
2023-01-04T07:51:55.048Z,4.40
2023-01-04T07:54:26.840Z,4.41
2023-01-04T07:56:58.656Z,4.47
2023-01-04T07:59:30.433Z,4.52
2023-01-04T08:02:03.008Z,4.53
2023-01-04T08:04:35.626Z,4.59
2023-01-04T08:07:08.078Z,4.62
2023-01-04T08:09:40.021Z,4.65
2023-01-04T08:12:11.708Z,4.69
2023-01-04T08:14:43.430Z,4.75
2023-01-04T08:17:15.185Z,4.79
2023-01-04T08:19:47.507Z,4.79
2023-01-04T08:22:19.365Z,4.80
2023-01-04T08:24:51.228Z,4.82
2023-01-04T08:27:23.134Z,4.88
2023-01-04T08:29:54.933Z,4.89
2023-01-04T08:32:27.214Z,4.90
2023-01-04T08:34:59.723Z,4.98
2023-01-04T08:37:32.056Z,5.03
2023-01-04T08:40:03.823Z,5.04
2023-01-04T08:42:35.777Z,5.07
2023-01-04T08:45:09.489Z,5.13
2023-01-04T08:47:41.229Z,5.16
2023-01-04T08:50:14.491Z,5.18
2023-01-04T08:52:46.369Z,5.19
2023-01-04T08:55:23.156Z,5.25
2023-01-04T08:57:55.642Z,5.25
2023-01-04T09:00:27.546Z,5.34
2023-01-04T09:02:59.732Z,5.29
2023-01-04T09:05:33.259Z,5.33
2023-01-04T09:08:05.423Z,5.39
2023-01-04T09:10:42.308Z,5.46
2023-01-04T09:13:14.279Z,5.49
2023-01-04T09:15:46.373Z,5.54
2023-01-04T09:18:30.812Z,5.60
2023-01-04T09:21:08.382Z,5.66
2023-01-04T09:23:40.678Z,5.65
2023-01-04T09:26:15.132Z,5.67
2023-01-04T09:28:47.281Z,5.66
2023-01-04T09:31:22.644Z,5.73
2023-01-04T09:36:48.622Z,5.83
2023-01-04T09:39:24.001Z,5.89
2023-01-04T09:41:59.917Z,5.92
2023-01-04T09:45:21.087Z,5.96
2023-01-04T09:47:46.009Z,5.97
2023-01-04T09:50:22.203Z,6.01
2023-01-04T09:53:03.670Z,6.01
2023-01-04T09:55:41.220Z,6.02
2023-01-04T09:58:26.803Z,5.99
2023-01-04T10:01:04.801Z,6.02
2023-01-04T10:03:39.121Z,6.06
2023-01-04T10:06:15.622Z,6.06
2023-01-04T10:08:47.945Z,6.09
2023-01-04T10:11:34.735Z,6.12
2023-01-04T10:14:39.626Z,6.15
2023-01-04T10:17:44.410Z,6.16
2023-01-04T10:23:53.560Z,6.19
2023-01-04T10:26:32.518Z,6.25
2023-01-04T10:29:27.134Z,6.24
2023-01-04T10:32:04.350Z,6.31
2023-01-04T10:34:42.702Z,6.32
2023-01-04T10:37:18.839Z,6.36
2023-01-04T10:39:55.879Z,6.40
2023-01-04T10:42:35.370Z,6.45
2023-01-04T10:45:16.737Z,6.43
2023-01-04T10:48:00.028Z,6.47
2023-01-04T10:50:38.344Z,6.47
2023-01-04T10:53:17.915Z,6.52
2023-01-04T10:56:25.349Z,6.54
2023-01-04T10:58:53.031Z,6.61
2023-01-04T11:01:30.638Z,6.65
2023-01-04T11:04:10.402Z,6.67
2023-01-04T11:06:47.946Z,6.68
2023-01-04T11:09:25.714Z,6.74
2023-01-04T11:11:59.152Z,6.77
2023-01-04T11:14:37.047Z,6.80
2023-01-04T11:17:12.413Z,6.73
2023-01-04T11:19:45.506Z,6.78
2023-01-04T11:22:25.245Z,6.82
2023-01-04T11:25:34.402Z,6.80
2023-01-04T11:27:58.540Z,6.80
2023-01-04T11:30:41.234Z,6.77
2023-01-04T11:33:18.249Z,6.72
2023-01-04T11:35:52.327Z,6.72
2023-01-04T11:38:25.786Z,6.69
2023-01-04T11:41:01.750Z,6.71
2023-01-04T11:43:34.966Z,6.67
2023-01-04T11:46:08.617Z,6.58
2023-01-04T11:48:43.935Z,6.62
2023-01-04T11:51:39.391Z,6.60
2023-01-04T11:54:21.457Z,6.55
2023-01-04T11:57:12.134Z,6.53
2023-01-04T11:59:44.360Z,6.45
2023-01-04T12:08:29.585Z,6.41
2023-01-04T12:11:03.602Z,6.38
2023-01-04T12:13:36.370Z,6.41
2023-01-04T12:16:13.040Z,6.46
2023-01-04T12:18:46.626Z,6.43
2023-01-04T12:21:21.352Z,6.39
2023-01-04T12:23:55.054Z,6.43
2023-01-04T12:26:27.206Z,6.41
2023-01-04T12:29:29.708Z,6.51
2023-01-04T12:32:32.142Z,6.47
2023-01-04T12:35:04.186Z,6.44
2023-01-04T12:37:49.706Z,6.39
2023-01-04T12:40:55.546Z,6.45
2023-01-04T12:43:43.100Z,6.48
2023-01-04T12:47:00.826Z,6.47
2023-01-04T12:50:00.001Z,6.45
2023-01-04T12:53:28.346Z,6.51
2023-01-04T12:56:01.583Z,6.48
2023-01-04T12:59:24.778Z,6.57
2023-01-04T13:02:20.637Z,6.44
2023-01-04T13:05:09.673Z,6.50
2023-01-04T13:07:50.344Z,6.50
2023-01-04T13:10:39.599Z,6.39
2023-01-04T13:13:24.263Z,6.43
2023-01-04T13:16:08.059Z,6.46
2023-01-04T13:18:43.663Z,6.43
2023-01-04T13:21:18.119Z,6.51
2023-01-04T13:23:53.783Z,6.57
2023-01-04T13:26:48.512Z,6.52
2023-01-04T13:29:24.015Z,6.53
2023-01-04T13:31:59.777Z,6.58
2023-01-04T13:34:34.737Z,6.57
2023-01-04T13:37:15.497Z,6.55
2023-01-04T13:39:49.492Z,6.51
2023-01-04T13:42:27.831Z,6.57
2023-01-04T13:45:24.338Z,6.55
2023-01-04T13:47:59.957Z,6.55
2023-01-04T13:50:36.562Z,6.56
2023-01-04T13:53:18.829Z,6.57
2023-01-04T13:55:54.909Z,6.54
2023-01-04T13:58:30.619Z,6.63
2023-01-04T14:01:07.012Z,6.62
2023-01-04T14:03:43.928Z,6.67
2023-01-04T14:06:23.379Z,6.68
2023-01-04T14:09:01.770Z,6.70
2023-01-04T14:11:54.518Z,6.72
2023-01-04T14:14:33.520Z,6.75
2023-01-04T14:17:27.146Z,6.75
2023-01-04T14:20:00.999Z,6.80
2023-01-04T14:22:38.908Z,6.82
2023-01-04T14:25:56.001Z,6.80
2023-01-04T14:28:41.869Z,6.78
2023-01-04T14:31:31.469Z,6.82
2023-01-04T14:34:12.451Z,6.85
2023-01-04T14:36:44.906Z,6.86
2023-01-04T14:39:30.253Z,6.90
2023-01-04T14:42:02.039Z,6.90
2023-01-04T14:44:36.216Z,6.91
2023-01-04T14:47:12.739Z,6.92
2023-01-04T14:49:44.951Z,6.92
2023-01-04T14:52:24.451Z,6.96
2023-01-04T14:54:56.371Z,6.94
2023-01-04T14:57:28.333Z,6.90
2023-01-04T15:00:00.188Z,6.88
2023-01-04T15:02:33.832Z,6.91
2023-01-04T15:05:06.657Z,6.93
2023-01-04T15:07:40.943Z,6.95
2023-01-04T15:10:30.023Z,6.93
2023-01-04T15:13:04.289Z,6.94
2023-01-04T15:15:36.210Z,6.95
2023-01-04T15:18:08.597Z,6.96
2023-01-04T15:20:42.999Z,6.97
2023-01-04T15:23:15.109Z,6.94
2023-01-04T15:25:47.220Z,6.97
2023-01-04T15:28:21.695Z,7.02
2023-01-04T15:30:53.583Z,7.04
2023-01-04T15:33:27.185Z,7.03
2023-01-04T15:36:03.719Z,7.04
2023-01-04T15:38:36.458Z,7.04
2023-01-04T15:41:07.907Z,7.06
2023-01-04T15:43:40.841Z,7.08
2023-01-04T15:46:12.736Z,7.05
2023-01-04T15:48:44.759Z,7.03
2023-01-04T15:51:16.540Z,7.02
2023-01-04T15:53:50.702Z,7.04
2023-01-04T15:56:23.257Z,7.10
2023-01-04T15:58:56.414Z,7.11
2023-01-04T16:01:28.259Z,7.12
2023-01-04T16:04:00.261Z,7.10
2023-01-04T16:06:32.142Z,7.13
2023-01-04T16:09:04.084Z,7.09
2023-01-04T16:11:35.905Z,7.13
2023-01-04T16:14:07.686Z,7.14
2023-01-04T16:16:39.535Z,7.15
2023-01-04T16:19:11.807Z,7.18
2023-01-04T16:21:43.535Z,7.21
2023-01-04T16:24:37.417Z,7.23
2023-01-04T16:27:08.355Z,7.22
2023-01-04T16:29:40.163Z,7.21
2023-01-04T16:32:11.976Z,7.25
2023-01-04T16:34:43.825Z,7.24
2023-01-04T16:37:15.797Z,7.23
2023-01-04T16:40:05.975Z,7.20
2023-01-04T16:42:39.292Z,7.18
2023-01-04T16:45:13.344Z,7.24
2023-01-04T16:47:46.043Z,7.26
2023-01-04T16:50:16.381Z,7.28
2023-01-04T16:52:48.868Z,7.29
2023-01-04T16:55:24.012Z,7.32
2023-01-04T16:57:56.338Z,7.30
2023-01-04T17:00:28.118Z,7.32
2023-01-04T17:03:00.781Z,7.35
2023-01-04T17:05:32.610Z,7.37
2023-01-04T17:08:04.545Z,7.42
2023-01-04T17:10:39.057Z,7.38
2023-01-04T17:13:10.950Z,7.40
2023-01-04T17:15:44.126Z,7.44
2023-01-04T17:18:20.806Z,7.43
2023-01-04T17:21:16.762Z,7.45
2023-01-04T17:23:51.780Z,7.49
2023-01-04T17:26:26.488Z,7.53
2023-01-04T17:28:59.924Z,7.52
2023-01-04T17:31:34.222Z,7.51
2023-01-04T17:34:06.798Z,7.50
2023-01-04T17:36:39.895Z,7.52
2023-01-04T17:39:11.944Z,7.53
2023-01-04T17:41:43.821Z,7.55
2023-01-04T17:44:15.587Z,7.59
2023-01-04T17:46:47.363Z,7.58
2023-01-04T17:49:24.074Z,7.57
2023-01-04T17:52:00.160Z,7.63
2023-01-04T17:54:31.952Z,7.64
2023-01-04T17:57:04.008Z,7.63
2023-01-04T17:59:35.783Z,7.65
2023-01-04T18:02:08.212Z,7.67
2023-01-04T18:04:40.431Z,7.69
2023-01-04T18:09:49.674Z,7.72
2023-01-04T18:12:22.597Z,7.73
2023-01-04T18:14:54.379Z,7.69
2023-01-04T18:17:26.244Z,7.70
2023-01-04T18:19:58.797Z,7.74
2023-01-04T18:22:29.276Z,7.77
2023-01-04T18:25:01.817Z,7.77
2023-01-04T18:27:32.360Z,7.78
2023-01-04T18:30:04.329Z,7.79
2023-01-04T18:32:36.188Z,7.81
2023-01-04T18:35:08.833Z,7.84
2023-01-04T18:37:40.620Z,7.85
2023-01-04T18:40:13.929Z,7.82
2023-01-04T18:42:50.450Z,7.89
2023-01-04T18:45:22.333Z,7.91
2023-01-04T18:47:54.316Z,7.91
2023-01-04T18:50:26.012Z,7.88
2023-01-04T18:52:57.664Z,7.83
2023-01-04T18:55:29.419Z,7.91
2023-01-04T18:58:01.917Z,7.96
2023-01-04T19:00:33.673Z,7.96
2023-01-04T19:03:05.430Z,7.94
2023-01-04T19:05:40.887Z,7.97
2023-01-04T19:08:12.816Z,8.01
2023-01-04T19:10:46.007Z,8.00
2023-01-04T19:13:18.007Z,8.04
2023-01-04T19:15:49.721Z,8.07
2023-01-04T19:18:21.517Z,8.08
2023-01-04T19:20:53.539Z,8.08
2023-01-04T19:23:26.422Z,8.05
2023-01-04T19:25:58.634Z,8.08
2023-01-04T19:28:31.817Z,8.11
2023-01-04T19:31:08.732Z,8.11
2023-01-04T19:33:41.155Z,8.12
2023-01-04T19:36:15.710Z,8.11
2023-01-04T19:38:48.064Z,8.10
2023-01-04T19:41:29.093Z,8.10
2023-01-04T19:44:07.340Z,8.14
2023-01-04T19:46:41.617Z,8.17
2023-01-04T19:49:15.543Z,8.16
2023-01-04T19:51:50.836Z,8.16
2023-01-04T19:54:25.525Z,8.18
2023-01-04T19:56:58.687Z,8.17
2023-01-04T19:59:31.503Z,8.17
2023-01-04T20:02:03.995Z,8.18
2023-01-04T20:04:36.347Z,8.21
2023-01-04T20:07:08.985Z,8.26
2023-01-04T20:09:41.137Z,8.30
2023-01-04T20:12:14.462Z,8.29
2023-01-04T20:14:47.307Z,8.28
2023-01-04T20:17:20.460Z,8.33
2023-01-04T20:19:53.358Z,8.28
2023-01-04T20:22:25.464Z,8.31
2023-01-04T20:24:58.583Z,8.34
2023-01-04T20:27:31.022Z,8.37
2023-01-04T20:30:03.905Z,8.41
2023-01-04T20:32:38.525Z,8.37
2023-01-04T20:35:12.396Z,8.40
2023-01-04T20:37:44.459Z,8.41
2023-01-04T20:40:17.514Z,8.37
2023-01-04T20:43:07.661Z,8.40
2023-01-04T20:45:44.491Z,8.41
2023-01-04T20:48:16.926Z,8.43
2023-01-04T20:50:49.169Z,8.44
2023-01-04T20:53:21.533Z,8.46
2023-01-04T20:55:53.493Z,8.48
2023-01-04T20:58:25.495Z,8.48
2023-01-04T21:00:57.668Z,8.47
2023-01-04T21:03:29.839Z,8.53
2023-01-04T21:06:03.628Z,8.56
2023-01-04T21:08:36.510Z,8.58
2023-01-04T21:11:07.028Z,8.59
2023-01-04T21:13:39.025Z,8.62
2023-01-04T21:16:11.967Z,8.65
2023-01-04T21:18:44.594Z,8.70
2023-01-04T21:21:18.908Z,8.73
2023-01-04T21:23:56.280Z,8.75
2023-01-04T21:26:29.885Z,8.76
2023-01-04T21:29:01.909Z,8.82
2023-01-04T21:31:35.917Z,8.85
2023-01-04T21:34:13.006Z,8.88
2023-01-04T21:36:47.268Z,8.89
2023-01-04T21:39:19.850Z,8.89
2023-01-04T21:41:53.990Z,8.91
2023-01-04T21:44:25.856Z,8.94
2023-01-04T21:46:58.465Z,8.97
2023-01-04T21:49:30.367Z,9.03
2023-01-04T21:52:02.184Z,9.07
2023-01-04T21:54:34.251Z,9.12
2023-01-04T21:57:07.976Z,9.14
2023-01-04T21:59:40.259Z,9.16
2023-01-04T22:02:15.758Z,9.19
2023-01-04T22:04:47.841Z,9.23
2023-01-04T22:07:19.649Z,9.30
2023-01-04T22:09:57.248Z,9.35
2023-01-04T22:12:29.575Z,9.41
2023-01-04T22:15:01.249Z,9.41
2023-01-04T22:17:33.346Z,9.42
2023-01-04T22:20:05.552Z,9.43
2023-01-04T22:22:37.320Z,9.42
2023-01-04T22:25:10.464Z,9.44
2023-01-04T22:27:42.177Z,9.47
2023-01-04T22:30:15.149Z,9.49
2023-01-04T22:32:47.558Z,9.52
2023-01-04T22:35:20.040Z,9.52
2023-01-04T22:37:51.861Z,9.54
2023-01-04T22:40:23.663Z,9.54
2023-01-04T22:42:55.395Z,9.51
2023-01-04T22:45:27.156Z,9.55
2023-01-04T22:47:58.878Z,9.57
2023-01-04T22:50:30.686Z,9.60
2023-01-04T22:53:02.377Z,9.61
2023-01-04T22:55:59.903Z,9.63
2023-01-04T22:58:25.945Z,9.66
2023-01-04T23:00:57.744Z,9.71
2023-01-04T23:03:30.304Z,9.72
2023-01-04T23:06:05.134Z,9.73
2023-01-04T23:08:38.515Z,9.75
2023-01-04T23:11:13.088Z,9.76
2023-01-04T23:13:45.165Z,9.76
2023-01-04T23:16:18.362Z,9.76
2023-01-04T23:18:50.237Z,9.76
2023-01-04T23:21:21.979Z,9.73
2023-01-04T23:23:53.781Z,9.71
2023-01-04T23:26:27.679Z,9.71
2023-01-04T23:29:00.241Z,9.65
2023-01-04T23:31:33.909Z,9.62
2023-01-04T23:34:07.899Z,9.63
2023-01-04T23:36:42.051Z,9.61
2023-01-04T23:39:15.992Z,9.61
2023-01-04T23:41:48.117Z,9.58
2023-01-04T23:46:56.560Z,9.58
2023-01-04T23:49:30.722Z,9.58
2023-01-04T23:52:03.462Z,9.59
2023-01-04T23:54:35.914Z,9.62
2023-01-04T23:57:07.600Z,9.61
2023-01-04T23:59:39.576Z,9.67
